Sydney Airport Weather Forecast (YSSY – SYD)

METAR

TTF METAR YSSY 191630Z 25011KT CAVOK 12/01 Q1020 RMK RF00.0/000.0 NOSIG

TAF

TAF YSSY 191635Z 1918/2024 29008KT 9999 SCT030 FM200100 06010KT 9999 FEW035 FM201200 29008KT 9999 FEW025 RMK T 11 12 16 18 Q 1020 1021 1021 1018

QNH 

1020

Temperature & Dew Point

12° DP1